createdAt,value
2022-09-13T00:00:34.802Z,16.1
2022-09-13T00:02:36.822Z,11.4
2022-09-13T00:04:38.834Z,10.3
2022-09-13T00:06:40.822Z,9.5
2022-09-13T00:08:42.959Z,9.1
2022-09-13T00:12:49.929Z,14.2
2022-09-13T00:14:51.953Z,14.5
2022-09-13T00:19:58.491Z,8.2
2022-09-13T00:22:00.485Z,8.5
2022-09-13T00:24:05.572Z,7.2
2022-09-13T00:26:07.581Z,10.7
2022-09-13T00:28:09.577Z,13.2
2022-09-13T00:30:11.599Z,8.2
2022-09-13T00:34:17.110Z,8.7
2022-09-13T00:36:19.200Z,9.5
2022-09-13T00:40:26.259Z,16.8
2022-09-13T00:42:28.166Z,8.1
2022-09-13T00:44:30.192Z,10.3
2022-09-13T00:46:32.206Z,8.6
2022-09-13T00:48:34.194Z,8.5
2022-09-13T00:52:44.877Z,8.4
2022-09-13T00:54:43.274Z,12.7
2022-09-13T00:56:45.298Z,7.8
2022-09-13T00:58:47.310Z,12.7
2022-09-13T01:00:49.333Z,8.6
2022-09-13T01:02:51.311Z,11.1
2022-09-13T01:04:53.317Z,8.9
2022-09-13T01:06:58.406Z,13.8
2022-09-13T01:09:00.410Z,10.3
2022-09-13T01:11:02.394Z,16.1
2022-09-13T01:12:05.062Z,10.5
2022-09-13T01:14:06.954Z,9.7
2022-09-13T01:16:09.043Z,11.9
2022-09-13T01:18:10.955Z,11.6
2022-09-13T01:22:18.036Z,15
2022-09-13T01:24:20.054Z,13.3
2022-09-13T01:30:26.077Z,12.4
2022-09-13T01:32:28.073Z,12.8
2022-09-13T01:34:33.164Z,12.7
2022-09-13T01:36:35.186Z,14
2022-09-13T01:38:37.195Z,10.2
2022-09-13T01:40:39.190Z,14.7
2022-09-13T01:42:41.202Z,9.6
2022-09-13T01:44:43.249Z,15.5
2022-09-13T01:46:45.237Z,11.2
2022-09-13T01:48:50.365Z,15.2
2022-09-13T01:50:52.355Z,14.3
2022-09-13T01:52:54.375Z,26.7
2022-09-13T01:56:58.381Z,13.1
2022-09-13T01:59:00.399Z,16.6
2022-09-13T02:01:02.594Z,13.1
2022-09-13T02:03:07.507Z,18.6
2022-09-13T02:05:09.536Z,15.9
2022-09-13T02:07:11.547Z,16.7
2022-09-13T02:12:18.140Z,20.8
2022-09-13T02:14:20.162Z,24.7
2022-09-13T02:20:29.305Z,16.4
2022-09-13T02:22:31.353Z,17.2
2022-09-13T02:24:33.359Z,14.3
2022-09-13T02:26:35.365Z,19.6
2022-09-13T02:28:37.394Z,13.3
2022-09-13T02:30:42.487Z,17.7
2022-09-13T02:32:44.499Z,14.8
2022-09-13T02:36:48.551Z,13.3
2022-09-13T02:38:50.597Z,15.6
2022-09-13T02:40:52.614Z,20.6
2022-09-13T02:42:54.642Z,18.2
2022-09-13T02:44:59.730Z,15.7
2022-09-13T02:47:01.757Z,24.5
2022-09-13T02:53:07.844Z,12.3
2022-09-13T02:55:09.863Z,19.9
2022-09-13T02:59:16.982Z,17.8
2022-09-13T03:01:19.030Z,16.3
2022-09-13T03:03:21.044Z,23.3
2022-09-13T03:05:38.100Z,19.8
2022-09-13T03:07:40.127Z,15.3
2022-09-13T03:09:42.143Z,20.5
2022-09-13T03:11:47.244Z,21.3
2022-09-13T03:13:49.272Z,19.2
2022-09-13T03:15:51.293Z,16.6
2022-09-13T03:17:53.309Z,16.2
2022-09-13T03:19:55.336Z,15.5
2022-09-13T03:21:57.371Z,24
2022-09-13T03:23:59.395Z,15.9
2022-09-13T03:26:04.494Z,28.6
2022-09-13T03:28:06.511Z,17.3
2022-09-13T03:30:08.527Z,14.6
2022-09-13T03:32:10.605Z,16.2
2022-09-13T03:34:12.570Z,26.5
2022-09-13T03:36:14.622Z,17.9
2022-09-13T03:40:21.793Z,21.1
2022-09-13T03:42:23.778Z,23.4
2022-09-13T03:46:27.816Z,16.4
2022-09-13T03:54:39.043Z,16
2022-09-13T03:58:43.096Z,20.2
2022-09-13T04:01:47.703Z,16.8
2022-09-13T04:03:53.303Z,24
2022-09-13T04:09:58.844Z,20.6
2022-09-13T04:12:00.868Z,30.9
2022-09-13T04:14:02.902Z,21.3
2022-09-13T04:16:05.029Z,17.1
2022-09-13T04:20:08.954Z,19.1
2022-09-13T04:26:18.141Z,16.7
2022-09-13T04:28:20.179Z,15.9
2022-09-13T04:30:22.318Z,17.6
2022-09-13T04:32:24.216Z,21.1
2022-09-13T04:36:31.332Z,20.7
2022-09-13T04:38:33.375Z,16.3
2022-09-13T04:42:37.420Z,20
2022-09-13T04:46:41.498Z,34.9
2022-09-13T04:48:43.631Z,28
2022-09-13T04:52:50.663Z,24.5
2022-09-13T04:54:52.682Z,26.6
2022-09-13T04:55:55.241Z,20.1
2022-09-13T04:57:57.281Z,28.7
2022-09-13T04:59:59.297Z,26.7
2022-09-13T05:02:01.397Z,28.5
2022-09-13T05:04:06.429Z,22.1
2022-09-13T05:06:08.476Z,28.8
2022-09-13T05:08:10.507Z,29.5
2022-09-13T05:10:16.403Z,22.4
2022-09-13T05:14:16.597Z,31.2
2022-09-13T05:16:18.670Z,22
2022-09-13T05:18:23.727Z,34.5
2022-09-13T05:20:25.792Z,28.2
2022-09-13T05:22:27.791Z,29.8
2022-09-13T05:24:29.815Z,37.6
2022-09-13T05:26:31.836Z,29.3
2022-09-13T05:28:33.879Z,31.8
2022-09-13T05:30:38.346Z,30.4
2022-09-13T05:32:41.023Z,33.7
2022-09-13T05:38:47.095Z,34
2022-09-13T05:42:51.150Z,28.3
2022-09-13T05:44:53.194Z,33.4
2022-09-13T05:46:58.304Z,33.3
2022-09-13T05:49:00.326Z,32.3
2022-09-13T05:51:02.351Z,32.3
2022-09-13T05:52:04.902Z,30.4
2022-09-13T05:54:06.932Z,26.7
2022-09-13T05:56:11.343Z,29.5
2022-09-13T05:58:10.962Z,26.4
2022-09-13T06:00:16.199Z,39.3
2022-09-13T06:02:18.139Z,28.8
2022-09-13T06:04:20.097Z,38.2
2022-09-13T06:06:22.114Z,28.4
2022-09-13T06:08:24.142Z,28.6
2022-09-13T06:10:26.192Z,36.1
2022-09-13T06:12:28.183Z,35.4
2022-09-13T06:14:33.267Z,36.9
2022-09-13T06:16:35.394Z,49.7
2022-09-13T06:18:37.349Z,39.9
2022-09-13T06:20:39.312Z,31.6
2022-09-13T06:22:41.365Z,37.2
2022-09-13T06:24:43.344Z,36.2
2022-09-13T06:26:46.912Z,40.1
2022-09-13T06:28:51.982Z,39.9
2022-09-13T06:30:53.988Z,35.9
2022-09-13T06:32:55.992Z,37.9
2022-09-13T06:34:57.995Z,28.6
2022-09-13T06:37:00.013Z,35.3
2022-09-13T06:39:02.037Z,36.4
2022-09-13T06:41:04.033Z,33.6
2022-09-13T06:45:11.149Z,27.6
2022-09-13T06:51:31.687Z,44.9
2022-09-13T06:53:33.687Z,44.7
2022-09-13T06:57:40.784Z,40.5
2022-09-13T07:01:44.877Z,26.7
2022-09-13T07:03:46.819Z,34.1
2022-09-13T07:05:48.802Z,33.7
2022-09-13T07:07:50.817Z,24.1
2022-09-13T07:09:55.895Z,30.2
2022-09-13T07:11:57.903Z,31.9
2022-09-13T07:13:59.918Z,32.5
2022-09-13T07:16:01.988Z,33.4
2022-09-13T07:18:03.923Z,27.3
2022-09-13T07:20:05.950Z,27.1
2022-09-13T07:22:07.943Z,26.7
2022-09-13T07:24:13.004Z,33.4
2022-09-13T07:26:15.012Z,25
2022-09-13T07:28:17.014Z,29.2
2022-09-13T07:30:19.127Z,27.2
2022-09-13T07:32:21.016Z,30.3
2022-09-13T07:34:23.003Z,34.3
2022-09-13T07:36:25.016Z,38.7
2022-09-13T07:38:30.095Z,38.1
2022-09-13T07:40:32.080Z,34.4
2022-09-13T07:42:34.084Z,40.5
2022-09-13T07:53:53.623Z,36.7
2022-09-13T07:55:51.666Z,36.8
2022-09-13T07:57:53.650Z,32.7
2022-09-13T07:59:55.630Z,31.1
2022-09-13T08:01:57.694Z,27.6
2022-09-13T08:03:59.617Z,27.6
2022-09-13T08:06:04.693Z,29.7
2022-09-13T08:08:06.675Z,37.7
2022-09-13T08:10:08.694Z,50.5
2022-09-13T08:12:10.649Z,16.9
2022-09-13T08:14:12.637Z,19.4
2022-09-13T08:16:14.660Z,22.1
2022-09-13T08:18:16.613Z,20.5
2022-09-13T08:20:21.702Z,23.1
2022-09-13T08:22:23.648Z,27.2
2022-09-13T08:24:25.619Z,23.1
2022-09-13T08:30:31.555Z,16
2022-09-13T08:36:40.556Z,15.6
2022-09-13T08:38:42.519Z,14.1
2022-09-13T08:39:45.093Z,18.7
2022-09-13T08:41:47.001Z,20.5
2022-09-13T08:43:49.094Z,15.4
2022-09-13T08:45:51.011Z,14.7
2022-09-13T08:47:56.005Z,28.2
2022-09-13T08:51:59.935Z,14.3
2022-09-13T08:54:01.886Z,12.3
2022-09-13T08:56:03.862Z,16.9
2022-09-13T08:58:05.828Z,11.6
2022-09-13T09:00:07.772Z,19.1
2022-09-13T09:02:12.890Z,12.9
2022-09-13T09:04:14.770Z,10.9
2022-09-13T09:06:16.712Z,13.4
2022-09-13T09:08:18.667Z,14.5
2022-09-13T09:10:20.744Z,6.5
2022-09-13T09:12:22.558Z,10.6
2022-09-13T09:14:24.516Z,10.5
2022-09-13T09:16:29.565Z,11.1
2022-09-13T09:28:41.222Z,4.6
2022-09-13T09:34:50.143Z,17.6
2022-09-13T09:35:52.628Z,13.1
2022-09-13T09:37:54.563Z,3.1
2022-09-13T09:39:56.616Z,4.5
2022-09-13T09:41:58.433Z,2.5
2022-09-13T09:44:03.471Z,4.3
2022-09-13T09:46:05.430Z,3.7
2022-09-13T09:48:07.335Z,3.5
2022-09-13T09:52:11.208Z,5.2
2022-09-13T09:54:13.147Z,3.3
2022-09-13T09:56:15.091Z,7.4
2022-09-13T09:58:20.130Z,7.6
2022-09-13T10:00:22.043Z,5.3
2022-09-13T10:04:25.902Z,4.2
2022-09-13T10:06:27.826Z,2.5
2022-09-13T10:08:29.763Z,2.4
2022-09-13T10:10:31.690Z,3.9
2022-09-13T10:12:36.717Z,1.6
2022-09-13T10:16:40.606Z,1.5
2022-09-13T10:18:44.794Z,3.2
2022-09-13T10:26:53.321Z,2
2022-09-13T10:33:19.779Z,1.3
2022-09-13T10:35:21.696Z,7.6
2022-09-13T10:37:23.611Z,2.9
2022-09-13T10:39:28.634Z,13.1
2022-09-13T10:41:30.565Z,4.9
2022-09-13T10:43:32.467Z,9.4
2022-09-13T10:45:34.374Z,0.8
2022-09-13T10:47:36.276Z,1.1
2022-09-13T10:49:38.208Z,7.2
2022-09-13T10:51:40.125Z,0.9
2022-09-13T10:53:45.129Z,1.9
2022-09-13T10:55:47.029Z,5.2
2022-09-13T10:57:48.943Z,4.4
2022-09-13T10:59:50.840Z,1.8
2022-09-13T11:01:52.764Z,9.6
2022-09-13T11:03:54.737Z,2.5
2022-09-13T11:05:56.576Z,2.1
2022-09-13T11:08:01.619Z,2.6
2022-09-13T11:10:03.503Z,3
2022-09-13T11:12:05.400Z,1.3
2022-09-13T11:14:07.299Z,5.2
2022-09-13T11:16:09.282Z,3.8
2022-09-13T11:18:11.109Z,0.8
2022-09-13T11:20:13.030Z,6.6
2022-09-13T11:22:18.047Z,4.8
2022-09-13T11:26:21.822Z,7.8
2022-09-13T11:27:24.322Z,2.1
2022-09-13T11:31:28.172Z,4.2
2022-09-13T11:33:30.004Z,1.3
2022-09-13T11:35:34.969Z,4.4
2022-09-13T11:37:36.850Z,1.5
2022-09-13T11:39:38.755Z,3.3
2022-09-13T11:41:40.621Z,7.5
2022-09-13T11:43:42.573Z,0.9
2022-09-13T11:45:44.420Z,1
2022-09-13T11:47:46.261Z,7.8
2022-09-13T11:49:51.240Z,2
2022-09-13T11:51:53.159Z,2
2022-09-13T11:53:55.005Z,2.9
2022-09-13T11:55:56.888Z,0.9
2022-09-13T11:57:58.768Z,1.9
2022-09-13T12:00:00.650Z,1.3
2022-09-13T12:02:02.621Z,9.5
2022-09-13T12:04:07.506Z,2
2022-09-13T12:06:09.400Z,6.1
2022-09-13T12:08:11.270Z,1
2022-09-13T12:10:13.143Z,5.2
2022-09-13T12:14:16.930Z,2
2022-09-13T12:16:18.817Z,1.5
2022-09-13T12:23:31.393Z,8.2
2022-09-13T12:25:33.252Z,5.5
2022-09-13T12:27:39.659Z,5.6
2022-09-13T12:29:36.947Z,7.1
2022-09-13T12:31:41.965Z,2.9
2022-09-13T12:33:43.773Z,6
2022-09-13T12:35:45.598Z,2.1
2022-09-13T12:37:47.424Z,10.3
2022-09-13T12:39:49.343Z,1.5
2022-09-13T12:41:51.141Z,0.8
2022-09-13T12:43:52.976Z,0.9
2022-09-13T12:45:57.972Z,4.8
2022-09-13T12:47:59.776Z,4.6
2022-09-13T12:50:15.138Z,0.9
2022-09-13T12:52:03.434Z,5
2022-09-13T12:54:05.268Z,7.1
2022-09-13T12:56:07.095Z,3.4
2022-09-13T12:58:08.957Z,2.5
2022-09-13T13:00:13.897Z,2.5
2022-09-13T13:02:15.752Z,6
2022-09-13T13:04:17.556Z,2.2
2022-09-13T13:08:21.245Z,2.2
2022-09-13T13:10:23.284Z,1.6
2022-09-13T13:12:24.977Z,16.2
2022-09-13T13:14:29.915Z,1.2
2022-09-13T13:16:31.817Z,4.2
2022-09-13T13:19:36.083Z,4.8
2022-09-13T13:21:37.928Z,1.3
2022-09-13T13:23:39.783Z,2.5
2022-09-13T13:25:41.610Z,11.3
2022-09-13T13:27:48.602Z,2.7
2022-09-13T13:29:48.371Z,2.9
2022-09-13T13:31:50.308Z,1.8
2022-09-13T13:33:52.037Z,3.6
2022-09-13T13:35:53.869Z,1.7
2022-09-13T13:37:55.723Z,1.4
2022-09-13T13:39:57.574Z,5.5
2022-09-13T13:42:02.478Z,2.9
2022-09-13T13:44:04.298Z,2.4
2022-09-13T13:46:06.218Z,0.9
2022-09-13T13:48:07.943Z,7.2
2022-09-13T13:50:09.793Z,1.4
2022-09-13T13:52:11.610Z,2.6
2022-09-13T13:54:13.420Z,0.5
2022-09-13T13:56:18.355Z,3.5
2022-09-13T13:58:20.172Z,3.9
2022-09-13T14:00:22.034Z,3.9
2022-09-13T14:04:25.680Z,1.7
2022-09-13T14:06:27.437Z,3.1
2022-09-13T14:08:29.250Z,4.2
2022-09-13T14:17:00.191Z,1.4
2022-09-13T14:21:03.680Z,20.2
2022-09-13T14:23:08.605Z,13.6
2022-09-13T14:25:10.406Z,8.8
2022-09-13T14:27:12.257Z,7.4
2022-09-13T14:35:19.479Z,4.1
2022-09-13T14:43:29.780Z,0.4
2022-09-13T14:45:31.593Z,5.8
2022-09-13T14:47:33.389Z,1.5
2022-09-13T14:49:35.205Z,4.8
2022-09-13T14:51:40.139Z,3.1
2022-09-13T14:53:41.970Z,1.5
2022-09-13T14:55:43.726Z,3.8
2022-09-13T14:57:45.506Z,11.6
2022-09-13T14:59:47.310Z,9.7
2022-09-13T15:01:49.099Z,0.7
2022-09-13T15:03:50.931Z,4.2
2022-09-13T15:05:55.831Z,11.6
2022-09-13T15:07:57.631Z,5.5
2022-09-13T15:09:59.436Z,4.1
2022-09-13T15:11:01.872Z,4.6
2022-09-13T15:13:03.681Z,0.6
2022-09-13T15:15:05.485Z,2.5
2022-09-13T15:17:07.288Z,1.7
2022-09-13T15:19:12.170Z,7.9
2022-09-13T15:23:15.758Z,2.7
2022-09-13T15:25:17.520Z,12.3
2022-09-13T15:27:19.336Z,12.6
2022-09-13T15:29:21.133Z,2.8
2022-09-13T15:31:22.977Z,3.3
2022-09-13T15:33:27.828Z,1.7
2022-09-13T15:35:29.616Z,5.9
2022-09-13T15:37:31.409Z,12.3
2022-09-13T15:39:33.183Z,4.7
2022-09-13T15:41:34.996Z,4.1
2022-09-13T15:43:36.798Z,3.2
2022-09-13T15:45:38.567Z,1.4
2022-09-13T15:49:45.266Z,4.1
2022-09-13T15:51:47.057Z,1.8
2022-09-13T15:53:48.842Z,9.1
2022-09-13T15:55:50.668Z,3.5
2022-09-13T15:57:52.456Z,7.4
2022-09-13T16:01:59.214Z,2.6
2022-09-13T16:07:05.288Z,8.2
2022-09-13T16:09:07.062Z,7.1
2022-09-13T16:11:08.872Z,4.1
2022-09-13T16:13:10.696Z,2.6
2022-09-13T16:15:15.633Z,7.6
2022-09-13T16:17:17.451Z,4
2022-09-13T16:19:19.325Z,1.1
2022-09-13T16:21:21.179Z,3.5
2022-09-13T16:23:23.009Z,1.1
2022-09-13T16:25:24.862Z,6.2
2022-09-13T16:27:28.749Z,7.1
2022-09-13T16:29:31.700Z,3.2
2022-09-13T16:31:33.699Z,2.3
2022-09-13T16:33:35.503Z,9
2022-09-13T16:35:37.401Z,4.2
2022-09-13T16:37:39.314Z,4.5
2022-09-13T16:39:41.273Z,1
2022-09-13T16:41:43.167Z,8.3
2022-09-13T16:43:48.238Z,0.6
2022-09-13T16:45:50.123Z,1
2022-09-13T16:47:52.079Z,4.5
2022-09-13T16:51:55.980Z,13.5
2022-09-13T16:53:57.937Z,0.8
2022-09-13T16:56:03.703Z,1.7
2022-09-13T16:58:04.950Z,13.6
2022-09-13T17:00:06.920Z,7.4
2022-09-13T17:02:09.223Z,2.5
2022-09-13T17:03:11.520Z,3.5
2022-09-13T17:05:13.401Z,2.1
2022-09-13T17:07:15.376Z,1.9
2022-09-13T17:09:17.355Z,3.6
2022-09-13T17:11:22.435Z,0.9
2022-09-13T17:13:24.387Z,4.8
2022-09-13T17:15:26.375Z,11.5
2022-09-13T17:17:28.386Z,15.7
2022-09-13T17:19:30.374Z,10.2
2022-09-13T17:21:32.366Z,11
2022-09-13T17:23:34.344Z,4.7
2022-09-13T17:25:39.450Z,6.7
2022-09-13T17:27:41.414Z,4
2022-09-13T17:29:43.427Z,6.2
2022-09-13T17:31:45.599Z,3.4
2022-09-13T17:35:49.416Z,9.2
2022-09-13T17:37:51.450Z,15.2
2022-09-13T17:39:56.562Z,4.8
2022-09-13T17:41:58.488Z,4.1
2022-09-13T17:44:00.508Z,3.3
2022-09-13T17:46:02.564Z,6.9
2022-09-13T17:48:04.524Z,6.9
2022-09-13T17:50:06.534Z,6.6
2022-09-13T17:52:08.527Z,13.5
2022-09-13T17:54:13.621Z,7.7
2022-09-13T17:56:15.661Z,5.8
2022-09-13T17:58:17.656Z,8.7
2022-09-13T18:00:34.471Z,6.7
2022-09-13T18:02:36.624Z,6.1
2022-09-13T18:04:38.497Z,11.4
2022-09-13T18:06:45.125Z,4.7
2022-09-13T18:08:47.105Z,21.9
2022-09-13T18:11:11.822Z,16.9
2022-09-13T18:12:51.139Z,8.7
2022-09-13T18:16:55.182Z,8.1
2022-09-13T18:18:57.204Z,12.2
2022-09-13T18:21:02.313Z,9.2
2022-09-13T18:25:06.371Z,5.1
2022-09-13T18:27:08.398Z,14.7
2022-09-13T18:29:10.418Z,9.8
2022-09-13T18:31:12.563Z,5.7
2022-09-13T18:35:19.631Z,2.5
2022-09-13T18:39:23.674Z,6.4
2022-09-13T18:41:25.723Z,11.8
2022-09-13T18:43:27.741Z,6.5
2022-09-13T18:49:36.900Z,5.3
2022-09-13T18:51:38.928Z,6.1
2022-09-13T18:53:40.974Z,7.7
2022-09-13T18:58:47.705Z,11
2022-09-13T19:00:49.596Z,9.1
2022-09-13T19:04:56.730Z,5.5
2022-09-13T19:06:58.746Z,12.9
2022-09-13T19:09:00.772Z,6.5
2022-09-13T19:11:02.818Z,19.3
2022-09-13T19:15:06.882Z,12.9
2022-09-13T19:17:11.971Z,25.3
2022-09-13T19:19:14.010Z,6.4
2022-09-13T19:23:18.099Z,4.2
2022-09-13T19:25:20.128Z,14.2
2022-09-13T19:27:22.158Z,5.6
2022-09-13T19:31:29.437Z,7.5
2022-09-13T19:33:31.348Z,7.7
2022-09-13T19:35:33.374Z,7.5
2022-09-13T19:37:35.433Z,10.3
2022-09-13T19:39:37.462Z,4.1
2022-09-13T19:41:39.495Z,8
2022-09-13T19:43:41.586Z,14.4
2022-09-13T19:45:46.736Z,12.2
2022-09-13T19:48:37.764Z,2.7
2022-09-13T19:50:53.281Z,9
2022-09-13T19:52:55.313Z,13.4
2022-09-13T19:54:57.363Z,5.9
2022-09-13T19:56:59.430Z,12.5
2022-09-13T19:59:04.492Z,10.7
2022-09-13T20:01:06.592Z,18.1
2022-09-13T20:03:08.590Z,6.5
2022-09-13T20:05:10.650Z,10.9
2022-09-13T20:07:12.660Z,6.9
2022-09-13T20:09:14.682Z,4.5
2022-09-13T20:11:16.735Z,8.6
2022-09-13T20:13:21.841Z,8.2
2022-09-13T20:15:23.874Z,15.4
2022-09-13T20:19:41.498Z,21.2
2022-09-13T20:21:30.015Z,8.4
2022-09-13T20:23:32.029Z,8.4
2022-09-13T20:25:34.090Z,6.7
2022-09-13T20:27:39.205Z,13.7
2022-09-13T20:29:41.225Z,11.5
2022-09-13T20:35:47.342Z,15.5
2022-09-13T20:37:49.382Z,14.4
2022-09-13T20:41:56.549Z,4.2
2022-09-13T20:43:58.578Z,12.5
2022-09-13T20:46:00.632Z,18.2
2022-09-13T20:47:03.172Z,8.8
2022-09-13T20:49:05.224Z,11.6
2022-09-13T20:51:07.269Z,12.1
2022-09-13T20:53:09.303Z,5.1
2022-09-13T20:55:14.422Z,7.1
2022-09-13T20:57:16.463Z,19.5
2022-09-13T20:59:18.520Z,10.2
2022-09-13T21:01:20.608Z,10.2
2022-09-13T21:03:22.608Z,8.6
2022-09-13T21:05:24.652Z,5.3
2022-09-13T21:07:26.690Z,12.9
2022-09-13T21:09:31.791Z,6.6
2022-09-13T21:11:33.831Z,14.1
2022-09-13T21:13:35.881Z,8.5
2022-09-13T21:15:37.929Z,5.3
2022-09-13T21:17:39.992Z,11.9
2022-09-13T21:19:42.044Z,9.4
2022-09-13T21:21:44.099Z,14.7
2022-09-13T21:23:49.256Z,13.1
2022-09-13T21:25:51.236Z,16.5
2022-09-13T21:27:53.294Z,14.9
2022-09-13T21:29:55.359Z,20
2022-09-13T21:31:57.402Z,7.9
2022-09-13T21:33:59.441Z,17.2
2022-09-13T21:36:01.489Z,6.6
2022-09-13T21:38:06.634Z,19.3
2022-09-13T21:42:10.698Z,8.1
2022-09-13T21:44:31.403Z,12.6
2022-09-13T21:46:33.460Z,6.3
2022-09-13T21:48:35.488Z,9.6
2022-09-13T21:50:40.601Z,7.6
2022-09-13T21:52:42.634Z,12.8
2022-09-13T21:54:44.687Z,9.9
2022-09-13T21:56:46.729Z,18.9
2022-09-13T21:58:48.778Z,12.4
2022-09-13T22:00:50.923Z,8.5
2022-09-13T22:02:52.885Z,6.7
2022-09-13T22:04:58.027Z,19.4
2022-09-13T22:07:00.070Z,7.3
2022-09-13T22:09:02.128Z,12.9
2022-09-13T22:11:04.153Z,12.4
2022-09-13T22:13:06.219Z,12.4
2022-09-13T22:15:08.263Z,17.5
2022-09-13T22:17:10.383Z,12.3
2022-09-13T22:19:15.420Z,12
2022-09-13T22:25:21.572Z,13.7
2022-09-13T22:27:23.626Z,15.1
2022-09-13T22:31:27.701Z,13.9
2022-09-13T22:33:32.831Z,16.9
2022-09-13T22:35:34.896Z,12.6
2022-09-13T22:38:39.469Z,22.1
2022-09-13T22:40:41.563Z,9.7
2022-09-13T22:42:43.558Z,10.5
2022-09-13T22:44:45.596Z,8.7
2022-09-13T22:46:50.715Z,7.6
2022-09-13T22:48:52.776Z,9.8
2022-09-13T22:50:54.818Z,13.2
2022-09-13T22:53:03.578Z,14.6
2022-09-13T22:54:58.915Z,10.4
2022-09-13T22:57:00.958Z,10.9
2022-09-13T22:59:03.016Z,14.1
2022-09-13T23:01:08.165Z,7.2
2022-09-13T23:03:10.195Z,22.8
2022-09-13T23:05:12.237Z,28
2022-09-13T23:07:14.296Z,7.6
2022-09-13T23:09:16.376Z,13.4
2022-09-13T23:11:18.410Z,16.3
2022-09-13T23:13:20.454Z,19.8
2022-09-13T23:15:25.573Z,22.4
2022-09-13T23:19:29.678Z,11
2022-09-13T23:21:31.723Z,21
2022-09-13T23:23:33.786Z,12.4
2022-09-13T23:25:35.851Z,16
2022-09-13T23:27:37.905Z,17.9
2022-09-13T23:29:43.020Z,11.5
2022-09-13T23:31:45.167Z,11.4
2022-09-13T23:33:47.171Z,9.2
2022-09-13T23:34:49.713Z,17.3
2022-09-13T23:36:51.752Z,20
2022-09-13T23:38:53.830Z,13.3
2022-09-13T23:40:55.865Z,24.1
2022-09-13T23:43:00.984Z,22
2022-09-13T23:45:03.048Z,26.1
2022-09-13T23:47:05.107Z,13
2022-09-13T23:53:11.271Z,16
2022-09-13T23:55:13.307Z,19.7
2022-09-13T23:57:18.424Z,20.4
2022-09-13T23:59:22.006Z,15.2
